createdAt,value
2018-06-24T00:01:58.600Z,14.82
2018-06-24T00:05:01.675Z,14.70
2018-06-24T00:08:03.795Z,14.58
2018-06-24T00:11:06.088Z,14.25
2018-06-24T00:14:08.195Z,14.06
2018-06-24T00:17:10.227Z,13.93
2018-06-24T00:20:12.312Z,14.01
2018-06-24T00:23:14.367Z,14.16
2018-06-24T00:26:16.353Z,14.26
2018-06-24T00:29:18.417Z,14.39
2018-06-24T00:32:20.746Z,14.42
2018-06-24T00:35:22.847Z,14.48
2018-06-24T00:38:24.916Z,14.43
2018-06-24T00:41:27.095Z,14.49
2018-06-24T00:44:29.128Z,14.62
2018-06-24T00:47:31.264Z,14.52
2018-06-24T00:50:33.362Z,14.46
2018-06-24T00:53:35.312Z,14.45
2018-06-24T00:56:37.435Z,14.41
2018-06-24T00:59:51.138Z,14.32
2018-06-24T01:02:53.279Z,14.17
2018-06-24T01:05:55.341Z,14.14
2018-06-24T01:08:57.387Z,14.20
2018-06-24T01:11:59.492Z,14.33
2018-06-24T01:15:02.695Z,14.45
2018-06-24T01:18:04.832Z,14.40
2018-06-24T01:21:06.952Z,14.36
2018-06-24T01:24:09.095Z,14.29
2018-06-24T01:27:11.155Z,14.30
2018-06-24T01:30:13.204Z,14.23
2018-06-24T01:33:16.311Z,14.11
2018-06-24T01:36:18.373Z,14.05
2018-06-24T01:39:20.416Z,13.98
2018-06-24T01:42:22.599Z,13.98
2018-06-24T01:45:24.680Z,14.01
2018-06-24T01:48:26.814Z,13.89
2018-06-24T01:51:29.071Z,13.87
2018-06-24T01:54:32.219Z,13.80
2018-06-24T01:57:34.271Z,13.84
2018-06-24T02:00:36.323Z,13.87
2018-06-24T02:03:38.423Z,13.87
2018-06-24T02:06:40.506Z,13.71
2018-06-24T02:09:42.581Z,13.64
2018-06-24T02:12:44.630Z,13.63
2018-06-24T02:15:46.694Z,13.65
2018-06-24T02:18:49.820Z,13.65
2018-06-24T02:21:51.912Z,13.55
2018-06-24T02:24:53.864Z,13.59
2018-06-24T02:27:55.909Z,13.52
2018-06-24T02:30:57.987Z,13.64
2018-06-24T02:34:00.118Z,13.55
2018-06-24T02:37:03.369Z,13.55
2018-06-24T02:40:05.528Z,13.49
2018-06-24T02:43:07.583Z,13.46
2018-06-24T02:46:09.715Z,13.55
2018-06-24T02:49:11.829Z,13.62
2018-06-24T02:52:13.843Z,13.50
2018-06-24T02:55:15.759Z,13.45
2018-06-24T02:58:17.803Z,13.30
2018-06-24T03:01:19.897Z,13.25
2018-06-24T03:04:22.051Z,13.24
2018-06-24T03:07:24.127Z,13.27
2018-06-24T03:10:26.164Z,13.33
2018-06-24T03:13:28.276Z,13.36
2018-06-24T03:16:30.340Z,13.43
2018-06-24T03:19:33.110Z,13.48
2018-06-24T03:22:35.079Z,13.52
2018-06-24T03:25:37.169Z,13.58
2018-06-24T03:28:39.196Z,13.63
2018-06-24T03:31:48.879Z,13.65
2018-06-24T03:34:50.965Z,13.69
2018-06-24T03:37:52.995Z,13.65
2018-06-24T03:40:55.100Z,13.70
2018-06-24T03:43:57.152Z,13.69
2018-06-24T03:46:59.236Z,13.69
2018-06-24T03:50:01.295Z,13.56
2018-06-24T03:53:04.008Z,13.40
2018-06-24T03:56:06.070Z,13.46
2018-06-24T03:59:12.099Z,13.57
2018-06-24T04:02:14.332Z,13.60
2018-06-24T04:05:16.252Z,13.58
2018-06-24T04:08:18.337Z,13.62
2018-06-24T04:11:20.481Z,13.65
2018-06-24T04:14:22.543Z,13.75
2018-06-24T04:17:24.699Z,13.82
2018-06-24T04:20:26.775Z,13.89
2018-06-24T04:23:28.843Z,13.97
2018-06-24T04:26:30.810Z,14.03
2018-06-24T04:29:33.563Z,14.10
2018-06-24T04:32:35.708Z,14.18
2018-06-24T04:35:37.630Z,14.23
2018-06-24T04:38:39.711Z,14.23
2018-06-24T04:41:41.776Z,14.36
2018-06-24T04:44:43.865Z,14.43
2018-06-24T04:47:45.911Z,14.47
2018-06-24T04:50:48.171Z,14.52
2018-06-24T04:53:50.135Z,14.61
2018-06-24T04:56:52.257Z,14.64
2018-06-24T04:59:54.275Z,14.72
2018-06-24T05:02:56.377Z,14.80
2018-06-24T05:05:59.459Z,14.86
2018-06-24T05:09:02.765Z,14.91
2018-06-24T05:12:04.843Z,14.97
2018-06-24T05:15:06.807Z,15.09
2018-06-24T05:18:08.847Z,15.15
2018-06-24T05:21:10.948Z,14.92
2018-06-24T05:24:13.304Z,15.15
2018-06-24T05:27:15.395Z,15.27
2018-06-24T05:30:17.831Z,15.44
2018-06-24T05:33:19.526Z,15.48
2018-06-24T05:36:22.700Z,15.42
2018-06-24T05:39:24.872Z,15.68
2018-06-24T05:42:26.927Z,15.83
2018-06-24T05:45:29.035Z,15.68
2018-06-24T05:48:31.543Z,15.85
2018-06-24T05:51:34.787Z,15.93
2018-06-24T05:54:36.781Z,16.01
2018-06-24T05:57:38.802Z,16.08
2018-06-24T06:00:40.943Z,16.04
2018-06-24T06:03:43.078Z,16.05
2018-06-24T06:06:45.216Z,16.16
2018-06-24T06:09:47.333Z,16.42
2018-06-24T06:12:49.501Z,16.47
2018-06-24T06:15:51.629Z,16.51
2018-06-24T06:18:53.716Z,16.45
2018-06-24T06:21:55.789Z,16.60
2018-06-24T06:24:57.739Z,16.61
2018-06-24T06:27:59.703Z,16.55
2018-06-24T06:31:01.707Z,16.37
2018-06-24T06:34:04.890Z,16.34
2018-06-24T06:37:06.995Z,16.49
2018-06-24T06:40:09.245Z,16.57
2018-06-24T06:43:11.292Z,16.67
2018-06-24T06:46:13.727Z,16.82
2018-06-24T06:49:15.871Z,16.90
2018-06-24T06:52:19.442Z,16.89
2018-06-24T06:55:21.356Z,16.90
2018-06-24T06:58:23.778Z,16.82
2018-06-24T07:01:25.919Z,16.88
2018-06-24T07:04:28.451Z,16.77
2018-06-24T07:07:30.844Z,16.95
2018-06-24T07:10:35.543Z,17.00
2018-06-24T07:13:37.951Z,17.02
2018-06-24T07:16:40.011Z,17.08
2018-06-24T07:19:42.543Z,17.07
2018-06-24T07:22:44.977Z,17.07
2018-06-24T07:25:47.012Z,17.20
2018-06-24T07:28:49.576Z,17.23
2018-06-24T07:31:52.109Z,17.16
2018-06-24T07:34:54.053Z,17.26
2018-06-24T07:37:56.088Z,17.26
2018-06-24T07:40:58.105Z,17.35
2018-06-24T07:44:00.147Z,17.47
2018-06-24T07:47:03.668Z,17.62
2018-06-24T07:50:05.758Z,17.67
2018-06-24T07:53:09.148Z,17.72
2018-06-24T07:56:11.712Z,17.75
2018-06-24T07:59:13.776Z,17.89
2018-06-24T08:02:16.265Z,17.94
2018-06-24T08:05:18.969Z,18.02
2018-06-24T08:08:21.359Z,18.04
2018-06-24T08:11:23.876Z,18.18
2018-06-24T08:14:27.010Z,18.14
2018-06-24T08:17:29.348Z,17.94
2018-06-24T08:20:31.851Z,17.92
2018-06-24T08:23:35.314Z,17.95
2018-06-24T08:26:37.402Z,18.00
2018-06-24T08:29:39.487Z,18.11
2018-06-24T08:32:41.993Z,18.15
2018-06-24T08:35:44.443Z,18.16
2018-06-24T08:38:46.487Z,18.18
2018-06-24T08:41:49.068Z,18.38
2018-06-24T08:44:51.384Z,18.33
2018-06-24T08:47:54.124Z,18.54
2018-06-24T08:50:56.696Z,18.49
2018-06-24T08:53:59.115Z,18.44
2018-06-24T08:57:01.151Z,18.48
2018-06-24T09:00:04.243Z,18.54
2018-06-24T09:03:06.645Z,18.68
2018-06-24T09:06:09.308Z,18.69
2018-06-24T09:09:11.711Z,18.74
2018-06-24T09:12:14.547Z,18.72
2018-06-24T09:15:16.764Z,18.58
2018-06-24T09:18:19.275Z,18.67
2018-06-24T09:21:21.739Z,18.83
2018-06-24T09:24:24.297Z,18.94
2018-06-24T09:27:26.683Z,18.98
2018-06-24T09:30:28.863Z,18.83
2018-06-24T09:33:31.410Z,18.78
2018-06-24T09:36:35.361Z,18.95
2018-06-24T09:39:37.428Z,18.86
2018-06-24T09:42:40.000Z,18.96
2018-06-24T09:45:42.498Z,19.08
2018-06-24T09:48:46.020Z,19.32
2018-06-24T09:51:47.985Z,19.44
2018-06-24T09:54:56.553Z,19.56
2018-06-24T09:57:59.067Z,19.64
2018-06-24T10:01:01.633Z,19.79
2018-06-24T10:04:06.067Z,19.89
2018-06-24T10:07:10.607Z,19.78
2018-06-24T10:10:12.641Z,19.66
2018-06-24T10:13:14.710Z,19.77
2018-06-24T10:16:17.242Z,19.72
2018-06-24T10:19:20.189Z,19.66
2018-06-24T10:22:22.727Z,19.57
2018-06-24T10:25:25.170Z,19.51
2018-06-24T10:28:27.211Z,19.45
2018-06-24T10:31:29.285Z,19.52
2018-06-24T10:34:31.798Z,19.74
2018-06-24T10:37:35.178Z,19.77
2018-06-24T10:40:37.407Z,20.13
2018-06-24T10:43:39.879Z,20.48
2018-06-24T10:46:42.489Z,20.44
2018-06-24T10:49:44.886Z,20.86
2018-06-24T10:52:47.332Z,20.74
2018-06-24T10:55:49.404Z,20.57
2018-06-24T10:58:52.400Z,20.55
2018-06-24T11:01:54.583Z,20.58
2018-06-24T11:04:57.315Z,20.44
2018-06-24T11:07:59.419Z,20.57
2018-06-24T11:11:01.548Z,20.80
2018-06-24T11:14:03.761Z,20.95
2018-06-24T11:17:05.931Z,20.90
2018-06-24T11:20:08.111Z,21.05
2018-06-24T11:23:10.173Z,21.12
2018-06-24T11:26:12.111Z,21.23
2018-06-24T11:29:14.665Z,21.33
2018-06-24T11:32:17.178Z,21.28
2018-06-24T11:35:20.253Z,20.96
2018-06-24T11:38:22.450Z,20.82
2018-06-24T11:41:24.603Z,20.83
2018-06-24T11:44:26.712Z,20.67
2018-06-24T11:47:28.981Z,21.06
2018-06-24T11:50:31.100Z,21.32
2018-06-24T11:53:33.745Z,21.40
2018-06-24T11:56:36.394Z,21.38
2018-06-24T11:59:38.735Z,21.26
2018-06-24T12:02:41.336Z,21.26
2018-06-24T12:05:43.888Z,21.27
2018-06-24T12:08:46.415Z,21.50
2018-06-24T12:11:48.825Z,21.64
2018-06-24T12:14:51.489Z,21.80
2018-06-24T12:17:54.044Z,21.84
2018-06-24T12:20:56.439Z,22.03
2018-06-24T12:23:58.569Z,22.04
2018-06-24T12:27:00.689Z,21.84
2018-06-24T12:30:02.911Z,21.83
2018-06-24T12:33:05.273Z,22.07
2018-06-24T12:36:07.387Z,22.08
2018-06-24T12:39:13.036Z,21.81
2018-06-24T12:42:15.576Z,21.63
2018-06-24T12:45:17.979Z,21.59
2018-06-24T12:48:20.063Z,21.46
2018-06-24T12:51:22.102Z,21.62
2018-06-24T12:54:26.139Z,21.74
2018-06-24T12:57:28.172Z,21.83
2018-06-24T13:00:30.891Z,22.16
2018-06-24T13:03:32.331Z,22.35
2018-06-24T13:06:34.420Z,22.47
2018-06-24T13:09:36.522Z,22.29
2018-06-24T13:12:38.535Z,22.11
2018-06-24T13:15:40.624Z,22.06
2018-06-24T13:18:42.713Z,21.83
2018-06-24T13:21:44.768Z,21.82
2018-06-24T13:24:46.867Z,21.80
2018-06-24T13:27:48.926Z,21.87
2018-06-24T13:30:51.122Z,22.09
2018-06-24T13:33:54.478Z,22.17
2018-06-24T13:36:56.476Z,22.07
2018-06-24T13:39:58.635Z,22.04
2018-06-24T13:43:00.737Z,22.07
2018-06-24T13:46:02.887Z,22.11
2018-06-24T13:49:05.077Z,22.09
2018-06-24T13:52:07.225Z,22.16
2018-06-24T13:55:09.312Z,22.31
2018-06-24T13:58:11.366Z,22.23
2018-06-24T14:01:13.584Z,22.43
2018-06-24T14:04:15.702Z,22.62
2018-06-24T14:07:18.631Z,22.62
2018-06-24T14:10:20.608Z,22.70
2018-06-24T14:13:23.727Z,22.86
2018-06-24T14:16:26.809Z,22.86
2018-06-24T14:19:28.915Z,22.64
2018-06-24T14:22:30.976Z,22.76
2018-06-24T14:25:34.039Z,22.67
2018-06-24T14:28:36.095Z,22.68
2018-06-24T14:31:38.222Z,22.88
2018-06-24T14:34:40.261Z,22.69
2018-06-24T14:37:42.364Z,22.52
2018-06-24T14:40:44.427Z,22.44
2018-06-24T14:43:46.480Z,22.39
2018-06-24T14:46:48.627Z,22.54
2018-06-24T14:49:50.711Z,22.85
2018-06-24T14:52:54.800Z,23.08
2018-06-24T14:55:56.914Z,22.79
2018-06-24T14:58:58.934Z,22.69
2018-06-24T15:02:01.071Z,22.72
2018-06-24T15:08:15.523Z,22.63
2018-06-24T15:11:17.683Z,22.62
2018-06-24T15:14:21.816Z,22.59
2018-06-24T15:17:23.891Z,22.64
2018-06-24T15:20:26.987Z,22.56
2018-06-24T15:23:29.181Z,22.46
2018-06-24T15:26:31.330Z,22.50
2018-06-24T15:29:33.388Z,22.44
2018-06-24T15:32:46.728Z,22.33
2018-06-24T15:35:48.782Z,22.21
2018-06-24T15:38:50.864Z,22.17
2018-06-24T15:41:53.069Z,22.20
2018-06-24T15:44:55.220Z,22.30
2018-06-24T15:47:57.276Z,22.27
2018-06-24T15:50:59.437Z,22.24
2018-06-24T15:54:01.500Z,22.18
2018-06-24T15:57:03.823Z,22.08
2018-06-24T16:00:05.789Z,22.04
2018-06-24T16:03:08.064Z,21.89
2018-06-24T16:06:10.079Z,21.82
2018-06-24T16:09:12.730Z,21.76
2018-06-24T16:12:14.756Z,21.81
2018-06-24T16:15:16.790Z,21.82
2018-06-24T16:18:18.987Z,21.82
2018-06-24T16:21:21.021Z,21.88
2018-06-24T16:24:24.164Z,21.86
2018-06-24T16:27:26.123Z,21.89
2018-06-24T16:30:28.182Z,21.86
2018-06-24T16:33:30.386Z,21.78
2018-06-24T16:36:32.487Z,21.80
2018-06-24T16:39:34.452Z,21.73
2018-06-24T16:42:37.472Z,21.67
2018-06-24T16:45:39.566Z,21.62
2018-06-24T16:48:41.618Z,21.65
2018-06-24T16:51:43.813Z,21.65
2018-06-24T16:54:45.935Z,21.70
2018-06-24T16:57:48.009Z,21.69
2018-06-24T17:00:51.319Z,21.70
2018-06-24T17:03:53.504Z,21.67
2018-06-24T17:06:55.438Z,21.61
2018-06-24T17:09:57.613Z,21.61
2018-06-24T17:12:59.733Z,21.63
2018-06-24T17:16:01.863Z,21.61
2018-06-24T17:19:09.782Z,21.56
2018-06-24T17:22:11.892Z,21.47
2018-06-24T17:25:14.120Z,21.39
2018-06-24T17:28:16.151Z,21.34
2018-06-24T17:31:18.240Z,21.38
2018-06-24T17:34:21.122Z,21.31
2018-06-24T17:37:23.172Z,21.23
2018-06-24T17:40:25.227Z,21.26
2018-06-24T17:43:27.315Z,21.24
2018-06-24T17:46:29.376Z,21.21
2018-06-24T17:49:31.450Z,21.25
2018-06-24T17:52:33.494Z,21.25
2018-06-24T17:55:35.551Z,21.24
2018-06-24T17:58:37.569Z,21.24
2018-06-24T18:01:39.745Z,21.20
2018-06-24T18:04:41.783Z,21.14
2018-06-24T18:07:43.771Z,21.12
2018-06-24T18:10:46.208Z,21.01
2018-06-24T18:13:49.607Z,21.01
2018-06-24T18:16:51.644Z,20.99
2018-06-24T18:19:53.929Z,20.99
2018-06-24T18:22:56.116Z,21.04
2018-06-24T18:25:58.213Z,21.00
2018-06-24T18:29:00.417Z,20.93
2018-06-24T18:32:02.658Z,20.89
2018-06-24T18:35:04.756Z,20.88
2018-06-24T18:38:07.145Z,20.80
2018-06-24T18:41:09.203Z,20.75
2018-06-24T18:44:11.263Z,20.71
2018-06-24T18:47:13.362Z,20.76
2018-06-24T18:50:15.419Z,20.68
2018-06-24T18:53:18.272Z,20.58
2018-06-24T18:56:20.447Z,20.52
2018-06-24T18:59:22.525Z,20.46
2018-06-24T19:02:24.813Z,20.33
2018-06-24T19:05:26.940Z,20.34
2018-06-24T19:08:30.005Z,20.28
2018-06-24T19:11:32.064Z,20.18
2018-06-24T19:14:34.188Z,20.12
2018-06-24T19:17:36.275Z,20.07
2018-06-24T19:20:38.427Z,20.02
2018-06-24T19:23:40.519Z,20.02
2018-06-24T19:26:42.986Z,19.91
2018-06-24T19:29:45.507Z,19.88
2018-06-24T19:32:47.577Z,19.83
2018-06-24T19:35:50.587Z,19.78
2018-06-24T19:38:53.090Z,19.72
2018-06-24T19:41:55.159Z,19.69
2018-06-24T19:44:57.194Z,19.64
2018-06-24T19:47:59.487Z,19.60
2018-06-24T19:51:02.596Z,19.57
2018-06-24T19:54:05.901Z,19.55
2018-06-24T19:57:07.993Z,19.47
2018-06-24T20:00:10.048Z,19.44
2018-06-24T20:03:12.111Z,19.40
2018-06-24T20:06:14.575Z,19.36
2018-06-24T20:09:17.173Z,19.33
2018-06-24T20:12:20.277Z,19.30
2018-06-24T20:15:22.758Z,19.21
2018-06-24T20:18:25.295Z,19.17
2018-06-24T20:21:27.301Z,19.14
2018-06-24T20:24:29.782Z,19.13
2018-06-24T20:27:31.849Z,19.12
2018-06-24T20:30:34.414Z,19.11
2018-06-24T20:33:36.795Z,19.11
2018-06-24T20:36:38.880Z,19.13
2018-06-24T20:39:41.431Z,19.09
2018-06-24T20:42:45.878Z,19.07
2018-06-24T20:45:47.968Z,19.07
2018-06-24T20:48:50.927Z,19.05
2018-06-24T20:51:53.000Z,19.02
2018-06-24T20:54:55.562Z,19.02
2018-06-24T20:57:57.539Z,19.02
2018-06-24T21:00:59.984Z,19.01
2018-06-24T21:04:02.076Z,18.98
2018-06-24T21:07:04.612Z,19.01
2018-06-24T21:10:06.724Z,19.01
2018-06-24T21:13:08.805Z,18.93
2018-06-24T21:16:11.295Z,18.86
2018-06-24T21:19:13.314Z,18.89
2018-06-24T21:22:15.409Z,18.87
2018-06-24T21:25:17.501Z,18.82
2018-06-24T21:28:19.655Z,18.82
2018-06-24T21:31:21.636Z,18.81
2018-06-24T21:34:23.784Z,18.83
2018-06-24T21:37:25.839Z,18.78
2018-06-24T21:40:27.923Z,18.76
2018-06-24T21:43:29.960Z,18.77
2018-06-24T21:46:31.975Z,18.72
2018-06-24T21:49:34.049Z,18.71
2018-06-24T21:52:36.044Z,18.67
2018-06-24T21:55:38.151Z,18.65
2018-06-24T21:58:40.244Z,18.58
2018-06-24T22:01:43.343Z,18.51
2018-06-24T22:04:45.381Z,18.48
2018-06-24T22:07:47.478Z,18.42
2018-06-24T22:10:49.546Z,18.40
2018-06-24T22:13:51.609Z,18.33
2018-06-24T22:16:53.795Z,18.37
2018-06-24T22:19:56.091Z,18.35
2018-06-24T22:22:58.164Z,18.34
2018-06-24T22:26:00.316Z,18.31
2018-06-24T22:29:02.363Z,18.26
2018-06-24T22:32:04.540Z,18.25
2018-06-24T22:35:06.579Z,18.17
2018-06-24T22:38:08.687Z,18.10
2018-06-24T22:41:10.799Z,18.11
2018-06-24T22:44:13.991Z,18.15
2018-06-24T22:47:16.049Z,18.17
2018-06-24T22:50:18.052Z,18.12
2018-06-24T22:53:20.132Z,18.09
2018-06-24T22:56:22.215Z,18.07
2018-06-24T23:00:34.324Z,18.04
2018-06-24T23:03:36.469Z,18.02
2018-06-24T23:06:38.573Z,18.00
2018-06-24T23:09:40.620Z,17.98
2018-06-24T23:12:43.706Z,18.01
2018-06-24T23:15:45.802Z,18.00
2018-06-24T23:18:47.863Z,18.01
2018-06-24T23:21:49.991Z,17.98
2018-06-24T23:24:52.367Z,18.02
2018-06-24T23:27:54.352Z,18.01
2018-06-24T23:30:56.511Z,17.98
2018-06-24T23:33:58.586Z,17.98
2018-06-24T23:37:00.659Z,17.95
2018-06-24T23:40:03.229Z,17.96
2018-06-24T23:43:05.660Z,17.94
2018-06-24T23:46:08.076Z,17.92
2018-06-24T23:49:10.128Z,17.89
2018-06-24T23:52:12.342Z,17.89
2018-06-24T23:55:14.527Z,17.88
2018-06-24T23:58:16.561Z,17.92
